Beachwood, Ohio
Current Conditions -  °F | °C
As of 6:45 AM on Thursday 23 Oct 2014 (Local Time) from KCGF Reporting Station
Few Clouds Few Clouds  
Wind Chill: 66°   Ceiling: Unl
Heat Index: 66°   Visibility: 20mi
Dew Point: 46°   Wind: 6mph
Humidity: 49%   Direction: 10°N
Pressure: 30.2"   Gusts: NA
Location:  41.49°N, 81.5°W
Report Text: KCGF 231045Z 01005KT 20SM FEW040 19/08 A3020
Loading
Personal Weather Stations






























Interactive Weather Map
Tropical Storm Tracking
New forecast layout! Learn more

10-Day Weather Forecast

Advertisements
Track Severe Weather on mobile